METAR AND TAF INFORMATION
METAR FOR EDLP
ADDS - METARS form results

(1733 UTC 21 March 2019)
Data provider http://aviationweather.gov/metar/data/
 
METAR text: EDLP 211720Z VRB02KT CAVOK 14/05 Q1032
Conditions at: EDLP (PADERBORN/LIPPST, DE) observed 1720 UTC 21 March 2019
Temperature: 14.0°C (57°F)
Dewpoint: 5.0°C (41°F) [RH = 55%]
Pressure (altimeter): 30.47 inches Hg (1032.0 mb)
Winds: variable direction winds at 2 MPH (2 knots; 1.0 m/s)
Visibility: 6 or more miles (10+ km)
Ceiling: ceiling and visibility are OK
Clouds: unknown
Weather: no significant weather observed at this time

METAR text: EDLP 211650Z 34003KT 300V060 CAVOK 15/05 Q1032
Conditions at: EDLP (PADERBORN/LIPPST, DE) observed 1650 UTC 21 March 2019
Temperature: 15.0°C (59°F)
Dewpoint: 5.0°C (41°F) [RH = 51%]
Pressure (altimeter): 30.47 inches Hg (1032.0 mb)
Winds: from the NNW (340 degrees) at 3 MPH (3 knots; 1.5 m/s)
Visibility: 6 or more miles (10+ km)
Ceiling: ceiling and visibility are OK
Clouds: unknown
Weather: no significant weather observed at this time

Forecast for: EDLP (PADERBORN/LIPPST, DE)
Text: TAF EDLP 211700Z 2118/2218 VRB03KT CAVOK
Forecast period: 1800 UTC 21 March 2019 to 1800 UTC 22 March 2019
Forecast type: FROM: standard forecast or significant change
Winds: variable direction winds at 3 MPH (3 knots; 1.5 m/s)
Visibility: 6 or more miles 10+ km)
Ceiling: unknown
Clouds: missing
Weather: NSW  (no significant weather)
Text: TEMPO 2203/2208 15005KT
Forecast period: 0300 to 0800 UTC 22 March 2019
Forecast type: TEMPORARY: The following changes expected for less than half the time period
Winds: from the SSE (150 degrees) at 6 MPH (5 knots; 2.6 m/s)
Visibility: missing
Ceiling: unknown
Clouds: missing
Weather: no significant weather forecast for this period

 AIRPORT MAP

 RUNWAY INFORMATION
Runway 06 Runway length 7152 ft Runway width 148 ft
Runway elevation 699 ft Runway displaced threshold 0 ft Runway heading 57
Runway 24 Runway length 7152 ft Runway width 148 ft
Runway elevation 674 ft Runway displaced threshold 0 ft Runway heading 237

 AIRPORT FREQUENCIES
Type ATIS Name ATIS Frequency 125.725 MHZ
Type GND Name GND Frequency 121.925 MHZ
Type INFO Name LANGEN INF Frequency 129.875 MHZ
Type OPS Name DISPATCH Frequency 130.425 MHZ
Type RDR Name LANGEN RAD Frequency 125.225 MHZ
Type TWR Name TWR Frequency 133.375 MHZ

 AIRPORT NEAR NAVIGATION AIDS
Type NDB-DME Name Paderborn/Lippstadt Frequency 354 KHZ



Powered by Virtual Airlines Manager [v2.6.2]